sensor_id;sensor_type;location;lat;lon;timestamp;P1;durP1;ratioP1;P2;durP2;ratioP2
71423;SDS011;59240;51.370;-0.486;2023-04-30T00:02:21;24.00;;;8.50;;
71423;SDS011;59240;51.370;-0.486;2023-04-30T00:04:48;20.63;;;8.95;;
71423;SDS011;59240;51.370;-0.486;2023-04-30T00:07:14;19.03;;;8.77;;
71423;SDS011;59240;51.370;-0.486;2023-04-30T00:09:41;19.52;;;9.45;;
71423;SDS011;59240;51.370;-0.486;2023-04-30T00:12:07;19.70;;;8.57;;
71423;SDS011;59240;51.370;-0.486;2023-04-30T00:14:34;21.23;;;9.32;;
71423;SDS011;59240;51.370;-0.486;2023-04-30T00:17:01;19.88;;;8.80;;
71423;SDS011;59240;51.370;-0.486;2023-04-30T00:19:28;21.33;;;8.57;;
71423;SDS011;59240;51.370;-0.486;2023-04-30T00:21:55;18.38;;;9.00;;
71423;SDS011;59240;51.370;-0.486;2023-04-30T00:24:23;19.35;;;8.77;;
71423;SDS011;59240;51.370;-0.486;2023-04-30T00:26:50;23.15;;;10.27;;
71423;SDS011;59240;51.370;-0.486;2023-04-30T00:29:17;23.60;;;9.38;;
71423;SDS011;59240;51.370;-0.486;2023-04-30T00:31:43;21.93;;;9.10;;
71423;SDS011;59240;51.370;-0.486;2023-04-30T00:34:10;18.70;;;8.30;;
71423;SDS011;59240;51.370;-0.486;2023-04-30T00:36:36;21.67;;;10.50;;
71423;SDS011;59240;51.370;-0.486;2023-04-30T00:39:04;22.05;;;9.38;;
71423;SDS011;59240;51.370;-0.486;2023-04-30T00:41:32;20.88;;;9.38;;
71423;SDS011;59240;51.370;-0.486;2023-04-30T00:44:00;20.93;;;9.30;;
71423;SDS011;59240;51.370;-0.486;2023-04-30T00:46:30;22.52;;;9.23;;
71423;SDS011;59240;51.370;-0.486;2023-04-30T00:48:57;23.40;;;9.38;;
71423;SDS011;59240;51.370;-0.486;2023-04-30T00:51:25;20.98;;;9.45;;
71423;SDS011;59240;51.370;-0.486;2023-04-30T00:53:52;19.33;;;8.95;;
71423;SDS011;59240;51.370;-0.486;2023-04-30T00:56:19;22.13;;;9.20;;
71423;SDS011;59240;51.370;-0.486;2023-04-30T00:58:46;23.02;;;10.25;;
71423;SDS011;59240;51.370;-0.486;2023-04-30T01:01:12;21.20;;;9.57;;
71423;SDS011;59240;51.370;-0.486;2023-04-30T01:03:39;25.73;;;10.05;;
71423;SDS011;59240;51.370;-0.486;2023-04-30T01:06:10;23.27;;;9.13;;
71423;SDS011;59240;51.370;-0.486;2023-04-30T01:08:37;28.70;;;11.73;;
71423;SDS011;59240;51.370;-0.486;2023-04-30T01:11:09;23.35;;;10.70;;
71423;SDS011;59240;51.370;-0.486;2023-04-30T01:16:55;29.95;;;11.07;;
71423;SDS011;59240;51.370;-0.486;2023-04-30T01:19:44;22.98;;;10.07;;
71423;SDS011;59240;51.370;-0.486;2023-04-30T01:25:00;25.10;;;10.07;;
71423;SDS011;59240;51.370;-0.486;2023-04-30T01:30:35;25.08;;;10.50;;
71423;SDS011;59240;51.370;-0.486;2023-04-30T01:33:03;27.50;;;11.02;;
71423;SDS011;59240;51.370;-0.486;2023-04-30T01:44:09;26.77;;;10.57;;
71423;SDS011;59240;51.370;-0.486;2023-04-30T01:50:00;23.33;;;10.17;;
71423;SDS011;59240;51.370;-0.486;2023-04-30T01:52:45;28.67;;;10.35;;
71423;SDS011;59240;51.370;-0.486;2023-04-30T01:55:29;21.55;;;9.82;;
71423;SDS011;59240;51.370;-0.486;2023-04-30T01:58:06;21.15;;;9.05;;
71423;SDS011;59240;51.370;-0.486;2023-04-30T02:00:37;21.98;;;10.45;;
71423;SDS011;59240;51.370;-0.486;2023-04-30T02:03:04;22.13;;;10.30;;
71423;SDS011;59240;51.370;-0.486;2023-04-30T02:05:31;22.58;;;9.32;;
71423;SDS011;59240;51.370;-0.486;2023-04-30T02:07:58;24.15;;;10.60;;
71423;SDS011;59240;51.370;-0.486;2023-04-30T02:10:25;25.27;;;9.88;;
71423;SDS011;59240;51.370;-0.486;2023-04-30T02:12:52;23.98;;;10.77;;
71423;SDS011;59240;51.370;-0.486;2023-04-30T02:15:19;21.00;;;10.30;;
71423;SDS011;59240;51.370;-0.486;2023-04-30T02:17:46;22.88;;;9.52;;
71423;SDS011;59240;51.370;-0.486;2023-04-30T02:20:13;22.85;;;9.68;;
71423;SDS011;59240;51.370;-0.486;2023-04-30T02:22:39;25.27;;;9.73;;
71423;SDS011;59240;51.370;-0.486;2023-04-30T02:25:06;21.27;;;9.75;;
71423;SDS011;59240;51.370;-0.486;2023-04-30T02:27:33;25.90;;;10.37;;
71423;SDS011;59240;51.370;-0.486;2023-04-30T02:30:00;24.58;;;10.48;;
71423;SDS011;59240;51.370;-0.486;2023-04-30T02:32:26;22.98;;;9.80;;
71423;SDS011;59240;51.370;-0.486;2023-04-30T02:34:53;23.83;;;10.23;;
71423;SDS011;59240;51.370;-0.486;2023-04-30T02:37:20;26.42;;;10.50;;
71423;SDS011;59240;51.370;-0.486;2023-04-30T02:39:49;26.80;;;10.37;;
71423;SDS011;59240;51.370;-0.486;2023-04-30T02:42:16;25.55;;;9.55;;
71423;SDS011;59240;51.370;-0.486;2023-04-30T02:44:43;22.35;;;10.15;;
71423;SDS011;59240;51.370;-0.486;2023-04-30T02:47:09;28.08;;;10.88;;
71423;SDS011;59240;51.370;-0.486;2023-04-30T02:49:36;27.23;;;11.38;;
71423;SDS011;59240;51.370;-0.486;2023-04-30T02:52:03;29.77;;;12.17;;
71423;SDS011;59240;51.370;-0.486;2023-04-30T02:54:29;30.90;;;13.68;;
71423;SDS011;59240;51.370;-0.486;2023-04-30T02:56:56;35.85;;;14.18;;
71423;SDS011;59240;51.370;-0.486;2023-04-30T02:59:22;32.70;;;13.85;;
71423;SDS011;59240;51.370;-0.486;2023-04-30T03:01:49;36.03;;;15.25;;
71423;SDS011;59240;51.370;-0.486;2023-04-30T03:04:16;29.90;;;14.17;;
71423;SDS011;59240;51.370;-0.486;2023-04-30T03:06:42;37.53;;;14.15;;
71423;SDS011;59240;51.370;-0.486;2023-04-30T03:09:09;35.38;;;15.73;;
71423;SDS011;59240;51.370;-0.486;2023-04-30T03:11:36;43.33;;;16.10;;
71423;SDS011;59240;51.370;-0.486;2023-04-30T03:14:03;38.05;;;15.60;;
71423;SDS011;59240;51.370;-0.486;2023-04-30T03:16:30;35.33;;;13.87;;
71423;SDS011;59240;51.370;-0.486;2023-04-30T03:18:56;33.50;;;13.80;;
71423;SDS011;59240;51.370;-0.486;2023-04-30T03:21:23;31.50;;;14.32;;
71423;SDS011;59240;51.370;-0.486;2023-04-30T03:23:50;31.25;;;13.38;;
71423;SDS011;59240;51.370;-0.486;2023-04-30T03:26:17;42.70;;;15.23;;
71423;SDS011;59240;51.370;-0.486;2023-04-30T03:28:46;37.07;;;15.37;;
71423;SDS011;59240;51.370;-0.486;2023-04-30T03:31:12;35.33;;;14.25;;
71423;SDS011;59240;51.370;-0.486;2023-04-30T03:33:39;35.85;;;14.85;;
71423;SDS011;59240;51.370;-0.486;2023-04-30T03:36:06;33.55;;;14.55;;
71423;SDS011;59240;51.370;-0.486;2023-04-30T03:38:32;37.13;;;15.48;;
71423;SDS011;59240;51.370;-0.486;2023-04-30T03:40:59;38.00;;;14.40;;
71423;SDS011;59240;51.370;-0.486;2023-04-30T03:43:25;34.97;;;14.63;;
71423;SDS011;59240;51.370;-0.486;2023-04-30T03:45:52;38.10;;;15.63;;
71423;SDS011;59240;51.370;-0.486;2023-04-30T03:48:19;40.67;;;15.82;;
71423;SDS011;59240;51.370;-0.486;2023-04-30T03:50:46;40.28;;;14.23;;
71423;SDS011;59240;51.370;-0.486;2023-04-30T03:53:13;34.93;;;15.47;;
71423;SDS011;59240;51.370;-0.486;2023-04-30T03:55:40;36.80;;;15.60;;
71423;SDS011;59240;51.370;-0.486;2023-04-30T03:58:07;35.38;;;14.95;;
71423;SDS011;59240;51.370;-0.486;2023-04-30T04:00:33;33.45;;;15.27;;
71423;SDS011;59240;51.370;-0.486;2023-04-30T04:03:00;39.58;;;15.63;;
71423;SDS011;59240;51.370;-0.486;2023-04-30T04:05:27;37.63;;;15.33;;
71423;SDS011;59240;51.370;-0.486;2023-04-30T04:07:55;33.60;;;14.38;;
71423;SDS011;59240;51.370;-0.486;2023-04-30T04:10:22;36.30;;;14.82;;
71423;SDS011;59240;51.370;-0.486;2023-04-30T04:12:49;33.45;;;14.77;;
71423;SDS011;59240;51.370;-0.486;2023-04-30T04:15:16;33.03;;;14.43;;
71423;SDS011;59240;51.370;-0.486;2023-04-30T04:17:42;34.90;;;14.87;;
71423;SDS011;59240;51.370;-0.486;2023-04-30T04:20:09;33.97;;;14.80;;
71423;SDS011;59240;51.370;-0.486;2023-04-30T04:22:39;34.08;;;15.18;;
71423;SDS011;59240;51.370;-0.486;2023-04-30T04:25:07;36.88;;;13.98;;
71423;SDS011;59240;51.370;-0.486;2023-04-30T04:27:35;38.42;;;16.05;;
71423;SDS011;59240;51.370;-0.486;2023-04-30T04:30:02;38.73;;;14.97;;
71423;SDS011;59240;51.370;-0.486;2023-04-30T04:32:29;33.42;;;14.20;;
71423;SDS011;59240;51.370;-0.486;2023-04-30T04:34:55;35.13;;;14.43;;
71423;SDS011;59240;51.370;-0.486;2023-04-30T04:37:22;37.78;;;15.05;;
71423;SDS011;59240;51.370;-0.486;2023-04-30T04:39:49;34.83;;;15.13;;
71423;SDS011;59240;51.370;-0.486;2023-04-30T04:42:16;35.33;;;14.97;;
71423;SDS011;59240;51.370;-0.486;2023-04-30T04:44:43;32.28;;;14.45;;
71423;SDS011;59240;51.370;-0.486;2023-04-30T04:47:10;36.08;;;14.50;;
71423;SDS011;59240;51.370;-0.486;2023-04-30T04:49:40;37.42;;;14.38;;
71423;SDS011;59240;51.370;-0.486;2023-04-30T04:52:10;36.35;;;14.98;;
71423;SDS011;59240;51.370;-0.486;2023-04-30T04:54:36;37.20;;;14.83;;
71423;SDS011;59240;51.370;-0.486;2023-04-30T04:57:05;43.92;;;15.43;;
71423;SDS011;59240;51.370;-0.486;2023-04-30T04:59:32;35.30;;;14.70;;
71423;SDS011;59240;51.370;-0.486;2023-04-30T05:01:58;35.65;;;14.07;;
71423;SDS011;59240;51.370;-0.486;2023-04-30T05:04:25;34.08;;;15.40;;
71423;SDS011;59240;51.370;-0.486;2023-04-30T05:06:53;36.70;;;14.83;;
71423;SDS011;59240;51.370;-0.486;2023-04-30T05:09:19;34.38;;;14.93;;
71423;SDS011;59240;51.370;-0.486;2023-04-30T05:11:46;37.67;;;15.93;;
71423;SDS011;59240;51.370;-0.486;2023-04-30T05:14:16;37.78;;;14.85;;
71423;SDS011;59240;51.370;-0.486;2023-04-30T05:16:43;34.28;;;15.40;;
71423;SDS011;59240;51.370;-0.486;2023-04-30T05:19:09;39.17;;;15.93;;
71423;SDS011;59240;51.370;-0.486;2023-04-30T05:21:36;40.17;;;16.38;;
71423;SDS011;59240;51.370;-0.486;2023-04-30T05:24:03;43.53;;;17.23;;
71423;SDS011;59240;51.370;-0.486;2023-04-30T05:26:30;37.30;;;15.70;;
71423;SDS011;59240;51.370;-0.486;2023-04-30T05:28:56;35.38;;;16.05;;
71423;SDS011;59240;51.370;-0.486;2023-04-30T05:31:23;37.60;;;16.03;;
71423;SDS011;59240;51.370;-0.486;2023-04-30T05:33:49;42.17;;;17.88;;
71423;SDS011;59240;51.370;-0.486;2023-04-30T05:36:16;35.30;;;15.18;;
71423;SDS011;59240;51.370;-0.486;2023-04-30T05:38:43;36.72;;;16.20;;
71423;SDS011;59240;51.370;-0.486;2023-04-30T05:41:12;39.47;;;16.13;;
71423;SDS011;59240;51.370;-0.486;2023-04-30T05:43:38;37.00;;;15.77;;
71423;SDS011;59240;51.370;-0.486;2023-04-30T05:46:05;39.15;;;16.70;;
71423;SDS011;59240;51.370;-0.486;2023-04-30T05:48:32;38.40;;;16.27;;
71423;SDS011;59240;51.370;-0.486;2023-04-30T05:50:59;43.28;;;18.02;;
71423;SDS011;59240;51.370;-0.486;2023-04-30T05:53:28;38.80;;;17.58;;
71423;SDS011;59240;51.370;-0.486;2023-04-30T05:55:55;47.93;;;19.43;;
71423;SDS011;59240;51.370;-0.486;2023-04-30T05:58:21;45.17;;;19.38;;
71423;SDS011;59240;51.370;-0.486;2023-04-30T06:00:48;46.35;;;18.65;;
71423;SDS011;59240;51.370;-0.486;2023-04-30T06:03:17;40.03;;;17.25;;
71423;SDS011;59240;51.370;-0.486;2023-04-30T06:05:44;44.33;;;17.80;;
71423;SDS011;59240;51.370;-0.486;2023-04-30T06:08:12;44.17;;;18.47;;
71423;SDS011;59240;51.370;-0.486;2023-04-30T06:10:39;42.70;;;17.58;;
71423;SDS011;59240;51.370;-0.486;2023-04-30T06:13:06;45.00;;;18.55;;
71423;SDS011;59240;51.370;-0.486;2023-04-30T06:15:32;41.97;;;18.25;;
71423;SDS011;59240;51.370;-0.486;2023-04-30T06:17:59;40.80;;;17.05;;
71423;SDS011;59240;51.370;-0.486;2023-04-30T06:20:26;40.33;;;16.63;;
71423;SDS011;59240;51.370;-0.486;2023-04-30T06:22:53;36.00;;;16.95;;
71423;SDS011;59240;51.370;-0.486;2023-04-30T06:25:19;39.33;;;16.83;;
71423;SDS011;59240;51.370;-0.486;2023-04-30T06:27:46;37.63;;;16.17;;
71423;SDS011;59240;51.370;-0.486;2023-04-30T06:30:12;36.75;;;15.65;;
71423;SDS011;59240;51.370;-0.486;2023-04-30T06:32:39;37.03;;;16.30;;
71423;SDS011;59240;51.370;-0.486;2023-04-30T06:35:06;34.35;;;15.43;;
71423;SDS011;59240;51.370;-0.486;2023-04-30T06:37:34;33.90;;;15.35;;
71423;SDS011;59240;51.370;-0.486;2023-04-30T06:40:03;32.13;;;14.63;;
71423;SDS011;59240;51.370;-0.486;2023-04-30T06:42:31;32.92;;;14.68;;
71423;SDS011;59240;51.370;-0.486;2023-04-30T06:45:00;32.03;;;15.73;;
71423;SDS011;59240;51.370;-0.486;2023-04-30T06:47:30;32.42;;;14.45;;
71423;SDS011;59240;51.370;-0.486;2023-04-30T06:50:04;32.13;;;14.15;;
71423;SDS011;59240;51.370;-0.486;2023-04-30T06:52:33;32.70;;;14.40;;
71423;SDS011;59240;51.370;-0.486;2023-04-30T06:55:00;31.38;;;13.75;;
71423;SDS011;59240;51.370;-0.486;2023-04-30T06:57:46;33.20;;;15.43;;
71423;SDS011;59240;51.370;-0.486;2023-04-30T07:00:13;31.40;;;15.48;;
71423;SDS011;59240;51.370;-0.486;2023-04-30T07:02:43;33.90;;;14.82;;
71423;SDS011;59240;51.370;-0.486;2023-04-30T07:05:09;32.15;;;14.52;;
71423;SDS011;59240;51.370;-0.486;2023-04-30T07:07:41;30.45;;;14.30;;
71423;SDS011;59240;51.370;-0.486;2023-04-30T07:10:08;36.47;;;15.43;;
71423;SDS011;59240;51.370;-0.486;2023-04-30T07:12:38;35.03;;;15.45;;
71423;SDS011;59240;51.370;-0.486;2023-04-30T07:15:08;33.28;;;15.40;;
71423;SDS011;59240;51.370;-0.486;2023-04-30T07:17:42;32.20;;;15.43;;
71423;SDS011;59240;51.370;-0.486;2023-04-30T07:20:08;32.67;;;15.65;;
71423;SDS011;59240;51.370;-0.486;2023-04-30T07:22:38;29.23;;;14.40;;
71423;SDS011;59240;51.370;-0.486;2023-04-30T07:25:05;31.83;;;15.75;;
71423;SDS011;59240;51.370;-0.486;2023-04-30T07:27:32;30.40;;;15.48;;
71423;SDS011;59240;51.370;-0.486;2023-04-30T07:29:59;32.67;;;15.27;;
71423;SDS011;59240;51.370;-0.486;2023-04-30T07:32:26;30.13;;;14.30;;
71423;SDS011;59240;51.370;-0.486;2023-04-30T07:34:52;32.00;;;14.50;;
71423;SDS011;59240;51.370;-0.486;2023-04-30T07:37:19;30.50;;;15.18;;
71423;SDS011;59240;51.370;-0.486;2023-04-30T07:39:47;29.95;;;14.82;;
71423;SDS011;59240;51.370;-0.486;2023-04-30T07:42:14;30.15;;;15.30;;
71423;SDS011;59240;51.370;-0.486;2023-04-30T07:44:43;31.73;;;15.77;;
71423;SDS011;59240;51.370;-0.486;2023-04-30T07:47:13;31.33;;;14.97;;
71423;SDS011;59240;51.370;-0.486;2023-04-30T07:49:45;32.33;;;15.35;;
71423;SDS011;59240;51.370;-0.486;2023-04-30T07:52:12;37.05;;;16.23;;
71423;SDS011;59240;51.370;-0.486;2023-04-30T07:54:39;32.90;;;15.90;;
71423;SDS011;59240;51.370;-0.486;2023-04-30T07:57:06;31.40;;;16.10;;
71423;SDS011;59240;51.370;-0.486;2023-04-30T07:59:33;31.20;;;15.50;;
71423;SDS011;59240;51.370;-0.486;2023-04-30T08:01:59;33.90;;;16.00;;
71423;SDS011;59240;51.370;-0.486;2023-04-30T08:04:37;31.75;;;15.90;;
71423;SDS011;59240;51.370;-0.486;2023-04-30T08:07:04;34.80;;;16.38;;
71423;SDS011;59240;51.370;-0.486;2023-04-30T08:09:30;32.80;;;16.80;;
71423;SDS011;59240;51.370;-0.486;2023-04-30T08:11:57;30.00;;;16.07;;
71423;SDS011;59240;51.370;-0.486;2023-04-30T08:14:24;34.45;;;15.13;;
71423;SDS011;59240;51.370;-0.486;2023-04-30T08:16:51;33.20;;;16.00;;
71423;SDS011;59240;51.370;-0.486;2023-04-30T08:19:18;32.63;;;15.70;;
71423;SDS011;59240;51.370;-0.486;2023-04-30T08:21:44;30.17;;;15.77;;
71423;SDS011;59240;51.370;-0.486;2023-04-30T08:24:11;30.57;;;16.07;;
71423;SDS011;59240;51.370;-0.486;2023-04-30T08:26:38;34.17;;;16.90;;
71423;SDS011;59240;51.370;-0.486;2023-04-30T08:29:04;26.65;;;13.40;;
71423;SDS011;59240;51.370;-0.486;2023-04-30T08:31:33;35.33;;;16.30;;
71423;SDS011;59240;51.370;-0.486;2023-04-30T08:34:01;31.20;;;15.60;;
71423;SDS011;59240;51.370;-0.486;2023-04-30T08:36:27;29.83;;;16.07;;
71423;SDS011;59240;51.370;-0.486;2023-04-30T08:38:54;31.45;;;16.70;;
71423;SDS011;59240;51.370;-0.486;2023-04-30T08:41:24;30.10;;;15.88;;
71423;SDS011;59240;51.370;-0.486;2023-04-30T08:43:52;32.08;;;16.30;;
71423;SDS011;59240;51.370;-0.486;2023-04-30T08:46:19;27.75;;;14.80;;
71423;SDS011;59240;51.370;-0.486;2023-04-30T08:48:46;27.37;;;14.27;;
71423;SDS011;59240;51.370;-0.486;2023-04-30T08:51:15;28.90;;;14.65;;
71423;SDS011;59240;51.370;-0.486;2023-04-30T08:53:42;27.70;;;15.50;;
71423;SDS011;59240;51.370;-0.486;2023-04-30T08:56:10;31.88;;;15.80;;
71423;SDS011;59240;51.370;-0.486;2023-04-30T08:58:37;27.20;;;15.55;;
71423;SDS011;59240;51.370;-0.486;2023-04-30T09:01:05;27.27;;;14.33;;
71423;SDS011;59240;51.370;-0.486;2023-04-30T09:03:35;23.48;;;12.82;;
71423;SDS011;59240;51.370;-0.486;2023-04-30T09:06:07;28.60;;;15.05;;
71423;SDS011;59240;51.370;-0.486;2023-04-30T09:08:40;26.48;;;15.27;;
71423;SDS011;59240;51.370;-0.486;2023-04-30T09:13:50;25.70;;;13.97;;
71423;SDS011;59240;51.370;-0.486;2023-04-30T09:16:19;23.42;;;12.52;;
71423;SDS011;59240;51.370;-0.486;2023-04-30T09:18:46;22.88;;;12.57;;
71423;SDS011;59240;51.370;-0.486;2023-04-30T09:21:14;22.38;;;12.70;;
71423;SDS011;59240;51.370;-0.486;2023-04-30T09:23:57;19.25;;;10.18;;
71423;SDS011;59240;51.370;-0.486;2023-04-30T09:26:26;21.53;;;11.47;;
71423;SDS011;59240;51.370;-0.486;2023-04-30T09:28:56;20.35;;;11.15;;
71423;SDS011;59240;51.370;-0.486;2023-04-30T09:31:24;23.50;;;11.40;;
71423;SDS011;59240;51.370;-0.486;2023-04-30T09:33:52;19.52;;;10.38;;
71423;SDS011;59240;51.370;-0.486;2023-04-30T09:36:19;21.05;;;10.88;;
71423;SDS011;59240;51.370;-0.486;2023-04-30T09:38:46;21.07;;;10.90;;
71423;SDS011;59240;51.370;-0.486;2023-04-30T09:41:22;21.25;;;11.32;;
71423;SDS011;59240;51.370;-0.486;2023-04-30T09:43:52;16.52;;;9.40;;
71423;SDS011;59240;51.370;-0.486;2023-04-30T09:46:20;15.80;;;8.00;;
71423;SDS011;59240;51.370;-0.486;2023-04-30T09:49:04;17.27;;;9.57;;
71423;SDS011;59240;51.370;-0.486;2023-04-30T09:51:32;15.77;;;9.17;;
71423;SDS011;59240;51.370;-0.486;2023-04-30T09:53:59;19.10;;;10.30;;
71423;SDS011;59240;51.370;-0.486;2023-04-30T09:56:28;18.05;;;8.85;;
71423;SDS011;59240;51.370;-0.486;2023-04-30T09:58:59;19.42;;;10.18;;
71423;SDS011;59240;51.370;-0.486;2023-04-30T10:01:29;16.67;;;9.45;;
71423;SDS011;59240;51.370;-0.486;2023-04-30T10:03:57;18.47;;;9.43;;
71423;SDS011;59240;51.370;-0.486;2023-04-30T10:06:24;16.60;;;8.75;;
71423;SDS011;59240;51.370;-0.486;2023-04-30T10:08:55;18.80;;;9.75;;
71423;SDS011;59240;51.370;-0.486;2023-04-30T10:11:25;17.25;;;9.63;;
71423;SDS011;59240;51.370;-0.486;2023-04-30T10:13:55;18.90;;;9.82;;
71423;SDS011;59240;51.370;-0.486;2023-04-30T10:19:30;18.33;;;9.15;;
71423;SDS011;59240;51.370;-0.486;2023-04-30T10:22:04;20.17;;;9.88;;
71423;SDS011;59240;51.370;-0.486;2023-04-30T10:24:41;16.48;;;8.95;;
71423;SDS011;59240;51.370;-0.486;2023-04-30T10:27:08;18.00;;;9.45;;
71423;SDS011;59240;51.370;-0.486;2023-04-30T10:29:35;17.83;;;9.40;;
71423;SDS011;59240;51.370;-0.486;2023-04-30T10:32:01;15.95;;;9.18;;
71423;SDS011;59240;51.370;-0.486;2023-04-30T10:34:34;18.50;;;9.65;;
71423;SDS011;59240;51.370;-0.486;2023-04-30T10:37:12;16.70;;;9.93;;
71423;SDS011;59240;51.370;-0.486;2023-04-30T10:39:47;19.30;;;9.55;;
71423;SDS011;59240;51.370;-0.486;2023-04-30T10:42:16;15.70;;;9.07;;
71423;SDS011;59240;51.370;-0.486;2023-04-30T10:44:45;15.20;;;8.20;;
71423;SDS011;59240;51.370;-0.486;2023-04-30T10:47:12;16.98;;;9.30;;
71423;SDS011;59240;51.370;-0.486;2023-04-30T10:49:38;18.00;;;9.75;;
71423;SDS011;59240;51.370;-0.486;2023-04-30T10:52:09;17.33;;;9.57;;
71423;SDS011;59240;51.370;-0.486;2023-04-30T10:54:36;18.27;;;9.80;;
71423;SDS011;59240;51.370;-0.486;2023-04-30T10:59:50;16.35;;;8.95;;
71423;SDS011;59240;51.370;-0.486;2023-04-30T11:02:18;14.65;;;8.35;;
71423;SDS011;59240;51.370;-0.486;2023-04-30T11:07:33;17.70;;;8.13;;
71423;SDS011;59240;51.370;-0.486;2023-04-30T11:10:00;15.82;;;8.93;;
71423;SDS011;59240;51.370;-0.486;2023-04-30T11:12:27;16.55;;;8.40;;
71423;SDS011;59240;51.370;-0.486;2023-04-30T11:15:04;17.52;;;8.50;;
71423;SDS011;59240;51.370;-0.486;2023-04-30T11:17:33;18.52;;;9.10;;
71423;SDS011;59240;51.370;-0.486;2023-04-30T11:19:59;16.83;;;9.43;;
71423;SDS011;59240;51.370;-0.486;2023-04-30T11:22:27;14.32;;;8.70;;
71423;SDS011;59240;51.370;-0.486;2023-04-30T11:27:26;16.45;;;8.93;;
71423;SDS011;59240;51.370;-0.486;2023-04-30T11:30:03;17.10;;;9.75;;
71423;SDS011;59240;51.370;-0.486;2023-04-30T11:32:37;15.67;;;9.00;;
71423;SDS011;59240;51.370;-0.486;2023-04-30T11:35:04;14.32;;;7.90;;
71423;SDS011;59240;51.370;-0.486;2023-04-30T11:40:03;19.17;;;8.98;;
71423;SDS011;59240;51.370;-0.486;2023-04-30T11:42:33;16.55;;;9.20;;
71423;SDS011;59240;51.370;-0.486;2023-04-30T11:45:02;14.60;;;8.77;;
71423;SDS011;59240;51.370;-0.486;2023-04-30T11:47:46;15.38;;;7.53;;
71423;SDS011;59240;51.370;-0.486;2023-04-30T11:50:23;16.05;;;8.00;;
71423;SDS011;59240;51.370;-0.486;2023-04-30T11:52:57;16.45;;;8.32;;
71423;SDS011;59240;51.370;-0.486;2023-04-30T11:55:28;15.65;;;7.07;;
71423;SDS011;59240;51.370;-0.486;2023-04-30T11:57:55;14.10;;;7.43;;
71423;SDS011;59240;51.370;-0.486;2023-04-30T12:00:25;17.45;;;8.55;;
71423;SDS011;59240;51.370;-0.486;2023-04-30T12:02:54;15.48;;;8.13;;
71423;SDS011;59240;51.370;-0.486;2023-04-30T12:05:22;14.13;;;7.70;;
71423;SDS011;59240;51.370;-0.486;2023-04-30T12:07:54;16.50;;;8.07;;
71423;SDS011;59240;51.370;-0.486;2023-04-30T12:10:22;15.17;;;8.17;;
71423;SDS011;59240;51.370;-0.486;2023-04-30T12:12:50;14.55;;;8.35;;
71423;SDS011;59240;51.370;-0.486;2023-04-30T12:15:22;16.50;;;9.68;;
71423;SDS011;59240;51.370;-0.486;2023-04-30T12:17:53;16.08;;;7.85;;
71423;SDS011;59240;51.370;-0.486;2023-04-30T12:20:28;15.27;;;8.35;;
71423;SDS011;59240;51.370;-0.486;2023-04-30T12:22:56;15.70;;;8.87;;
71423;SDS011;59240;51.370;-0.486;2023-04-30T12:25:23;14.65;;;8.18;;
71423;SDS011;59240;51.370;-0.486;2023-04-30T12:27:53;16.08;;;8.85;;
71423;SDS011;59240;51.370;-0.486;2023-04-30T12:30:23;16.85;;;8.02;;
71423;SDS011;59240;51.370;-0.486;2023-04-30T12:32:55;14.90;;;7.85;;
71423;SDS011;59240;51.370;-0.486;2023-04-30T12:35:23;14.67;;;7.50;;
71423;SDS011;59240;51.370;-0.486;2023-04-30T12:37:55;14.70;;;8.15;;
71423;SDS011;59240;51.370;-0.486;2023-04-30T12:40:27;16.25;;;8.27;;
71423;SDS011;59240;51.370;-0.486;2023-04-30T12:45:52;12.90;;;6.20;;
71423;SDS011;59240;51.370;-0.486;2023-04-30T12:48:21;15.10;;;7.20;;
71423;SDS011;59240;51.370;-0.486;2023-04-30T12:50:51;13.55;;;6.50;;
71423;SDS011;59240;51.370;-0.486;2023-04-30T12:53:25;12.15;;;6.50;;
71423;SDS011;59240;51.370;-0.486;2023-04-30T12:58:45;12.07;;;6.25;;
71423;SDS011;59240;51.370;-0.486;2023-04-30T13:01:18;13.30;;;5.43;;
71423;SDS011;59240;51.370;-0.486;2023-04-30T13:03:50;13.95;;;6.28;;
71423;SDS011;59240;51.370;-0.486;2023-04-30T13:06:19;12.13;;;5.50;;
71423;SDS011;59240;51.370;-0.486;2023-04-30T13:08:47;12.13;;;5.93;;
71423;SDS011;59240;51.370;-0.486;2023-04-30T13:11:24;10.65;;;5.43;;
71423;SDS011;59240;51.370;-0.486;2023-04-30T13:13:52;10.73;;;5.47;;
71423;SDS011;59240;51.370;-0.486;2023-04-30T13:16:20;12.60;;;5.78;;
71423;SDS011;59240;51.370;-0.486;2023-04-30T13:18:48;14.48;;;6.03;;
71423;SDS011;59240;51.370;-0.486;2023-04-30T13:21:14;12.00;;;5.75;;
71423;SDS011;59240;51.370;-0.486;2023-04-30T13:23:41;12.07;;;4.97;;
71423;SDS011;59240;51.370;-0.486;2023-04-30T13:26:18;8.77;;;3.77;;
71423;SDS011;59240;51.370;-0.486;2023-04-30T13:28:45;10.55;;;4.38;;
71423;SDS011;59240;51.370;-0.486;2023-04-30T13:31:15;10.63;;;4.32;;
71423;SDS011;59240;51.370;-0.486;2023-04-30T13:33:42;11.30;;;4.72;;
71423;SDS011;59240;51.370;-0.486;2023-04-30T13:36:09;14.20;;;4.90;;
71423;SDS011;59240;51.370;-0.486;2023-04-30T13:38:35;10.10;;;4.43;;
71423;SDS011;59240;51.370;-0.486;2023-04-30T13:41:04;9.48;;;4.07;;
71423;SDS011;59240;51.370;-0.486;2023-04-30T13:43:32;11.43;;;4.13;;
71423;SDS011;59240;51.370;-0.486;2023-04-30T13:45:59;11.07;;;4.47;;
71423;SDS011;59240;51.370;-0.486;2023-04-30T13:48:26;10.32;;;5.00;;
71423;SDS011;59240;51.370;-0.486;2023-04-30T13:50:53;11.03;;;4.97;;
71423;SDS011;59240;51.370;-0.486;2023-04-30T13:53:20;11.85;;;4.55;;
71423;SDS011;59240;51.370;-0.486;2023-04-30T13:55:46;7.47;;;3.13;;
71423;SDS011;59240;51.370;-0.486;2023-04-30T13:58:13;10.63;;;3.53;;
71423;SDS011;59240;51.370;-0.486;2023-04-30T14:00:40;11.18;;;4.78;;
71423;SDS011;59240;51.370;-0.486;2023-04-30T14:03:08;9.07;;;4.53;;
71423;SDS011;59240;51.370;-0.486;2023-04-30T14:05:35;9.18;;;4.25;;
71423;SDS011;59240;51.370;-0.486;2023-04-30T14:08:02;9.35;;;4.57;;
71423;SDS011;59240;51.370;-0.486;2023-04-30T14:10:29;9.88;;;4.30;;
71423;SDS011;59240;51.370;-0.486;2023-04-30T14:12:56;9.38;;;4.50;;
71423;SDS011;59240;51.370;-0.486;2023-04-30T14:15:23;8.93;;;4.03;;
71423;SDS011;59240;51.370;-0.486;2023-04-30T14:17:49;9.75;;;4.47;;
71423;SDS011;59240;51.370;-0.486;2023-04-30T14:20:17;9.20;;;4.13;;
71423;SDS011;59240;51.370;-0.486;2023-04-30T14:22:43;10.88;;;4.72;;
71423;SDS011;59240;51.370;-0.486;2023-04-30T14:25:10;11.68;;;4.93;;
71423;SDS011;59240;51.370;-0.486;2023-04-30T14:27:38;11.80;;;5.63;;
71423;SDS011;59240;51.370;-0.486;2023-04-30T14:30:05;12.60;;;6.15;;
71423;SDS011;59240;51.370;-0.486;2023-04-30T14:32:33;11.23;;;5.57;;
71423;SDS011;59240;51.370;-0.486;2023-04-30T14:35:02;11.55;;;5.22;;
71423;SDS011;59240;51.370;-0.486;2023-04-30T14:37:29;11.40;;;4.75;;
71423;SDS011;59240;51.370;-0.486;2023-04-30T14:39:56;10.90;;;5.13;;
71423;SDS011;59240;51.370;-0.486;2023-04-30T14:42:23;11.05;;;5.15;;
71423;SDS011;59240;51.370;-0.486;2023-04-30T14:44:50;11.77;;;4.70;;
71423;SDS011;59240;51.370;-0.486;2023-04-30T14:47:18;11.90;;;5.50;;
71423;SDS011;59240;51.370;-0.486;2023-04-30T14:49:46;10.32;;;4.85;;
71423;SDS011;59240;51.370;-0.486;2023-04-30T14:52:17;8.97;;;4.37;;
71423;SDS011;59240;51.370;-0.486;2023-04-30T14:54:45;13.48;;;5.50;;
71423;SDS011;59240;51.370;-0.486;2023-04-30T14:57:11;11.02;;;5.63;;
71423;SDS011;59240;51.370;-0.486;2023-04-30T14:59:38;11.63;;;5.97;;
71423;SDS011;59240;51.370;-0.486;2023-04-30T15:02:06;11.20;;;4.80;;
71423;SDS011;59240;51.370;-0.486;2023-04-30T15:04:33;11.10;;;5.27;;
71423;SDS011;59240;51.370;-0.486;2023-04-30T15:07:00;11.45;;;4.65;;